Time;durP1;ratioP1;P1;durP2;ratioP2;P2;SDS_P1;SDS_P2;PMS_P1;PMS_P2;Temp;Humidity;BMP_temperature;BMP_pressure;BME280_temperature;BME280_humidity;BME280_pressure;Samples;Min_cycle;Max_cycle;Signal;HPM_P1;HPM_P2
2023/09/28 00:02:50;;;;;;;;;11.33;9.67;;;;;22.52;100.00;101346.69;4996484;28;45507;-73
2023/09/28 00:05:16;;;;;;;;;12.33;11.00;;;;;22.51;100.00;101342.25;4999019;28;45785;-72
2023/09/28 00:07:42;;;;;;;;;12.67;11.33;;;;;22.47;100.00;101352.22;4997310;28;45450;-72
2023/09/28 00:10:11;;;;;;;;;11.00;9.67;;;;;22.44;100.00;101359.53;4997775;28;45960;-73
2023/09/28 00:12:38;;;;;;;;;8.00;8.00;;;;;22.43;100.00;101357.75;4998626;28;45476;-72
2023/09/28 00:15:04;;;;;;;;;14.00;11.00;;;;;22.40;100.00;101358.72;4999071;28;45377;-72
2023/09/28 00:17:29;;;;;;;;;11.33;8.33;;;;;22.39;100.00;101356.97;4999081;28;45302;-73
2023/09/28 00:19:55;;;;;;;;;13.00;10.00;;;;;22.36;100.00;101362.41;4997148;28;46376;-73
2023/09/28 00:22:20;;;;;;;;;12.67;9.00;;;;;22.34;100.00;101358.91;4997849;28;66274;-72
2023/09/28 00:24:46;;;;;;;;;14.00;12.00;;;;;22.34;100.00;101368.78;4997342;28;64878;-72
2023/09/28 00:27:11;;;;;;;;;8.00;7.00;;;;;22.32;100.00;101373.31;4995668;28;60012;-74
2023/09/28 00:29:37;;;;;;;;;11.00;8.00;;;;;22.27;100.00;101370.78;4997190;28;48368;-73
2023/09/28 00:32:03;;;;;;;;;9.33;9.00;;;;;22.30;100.00;101372.47;4998101;28;45333;-71
2023/09/28 00:34:28;;;;;;;;;7.00;7.00;;;;;22.35;100.00;101382.19;4994468;28;45479;-74
2023/09/28 00:36:54;;;;;;;;;11.00;10.00;;;;;22.40;100.00;101379.38;4996909;28;63332;-74
2023/09/28 00:39:19;;;;;;;;;9.33;9.00;;;;;22.42;100.00;101386.44;4993459;28;68675;-71
2023/09/28 00:41:45;;;;;;;;;12.00;9.67;;;;;22.47;100.00;101391.69;4997986;28;45971;-73
2023/09/28 00:44:11;;;;;;;;;9.00;6.00;;;;;22.51;100.00;101392.50;4998049;28;45280;-72
2023/09/28 00:46:37;;;;;;;;;9.33;8.00;;;;;22.49;100.00;101396.13;4998192;28;45463;-71
2023/09/28 00:49:04;;;;;;;;;9.33;6.33;;;;;22.51;100.00;101403.28;4997106;28;47354;-71
2023/09/28 00:51:31;;;;;;;;;8.00;8.00;;;;;22.51;100.00;101397.88;4980704;28;45495;-73
2023/09/28 00:54:00;;;;;;;;;9.33;8.00;;;;;22.53;100.00;101390.63;4998062;28;45259;-70
2023/09/28 00:56:25;;;;;;;;;6.33;5.00;;;;;22.49;100.00;101389.88;4996526;28;45494;-71
2023/09/28 00:58:52;;;;;;;;;7.67;7.67;;;;;22.48;100.00;101393.50;4996684;28;46985;-72
2023/09/28 01:01:18;;;;;;;;;7.00;7.00;;;;;22.45;100.00;101404.34;4995086;28;45538;-71
2023/09/28 01:03:43;;;;;;;;;6.00;6.00;;;;;22.41;100.00;101391.88;4994850;28;64864;-72
2023/09/28 01:06:08;;;;;;;;;6.33;6.33;;;;;22.36;100.00;101386.63;4979560;28;53149;-71
2023/09/28 01:08:34;;;;;;;;;11.00;7.00;;;;;22.33;100.00;101394.81;4996447;28;46346;-71
2023/09/28 01:10:59;;;;;;;;;6.00;6.00;;;;;22.28;100.00;101386.00;4997132;28;66053;-72
2023/09/28 01:13:27;;;;;;;;;7.00;7.00;;;;;22.28;100.00;101374.34;4996614;28;62392;-72
2023/09/28 01:15:52;;;;;;;;;7.33;7.33;;;;;22.20;100.00;101358.41;4994043;28;45429;-73
2023/09/28 01:18:19;;;;;;;;;8.00;6.33;;;;;22.18;100.00;101357.59;4997390;28;66880;-71
2023/09/28 01:20:45;;;;;;;;;7.00;7.00;;;;;22.13;100.00;101363.09;4997042;28;45428;-72
2023/09/28 01:23:11;;;;;;;;;9.33;8.00;;;;;22.12;100.00;101372.09;4995415;28;45341;-73
2023/09/28 01:25:38;;;;;;;;;7.00;6.00;;;;;22.11;100.00;101375.72;4994201;28;45469;-73
2023/09/28 01:28:05;;;;;;;;;9.67;8.00;;;;;22.14;100.00;101386.38;4997598;28;46557;-73
2023/09/28 01:30:31;;;;;;;;;6.00;6.00;;;;;22.07;100.00;101398.19;4993751;28;45577;-72
2023/09/28 01:32:57;;;;;;;;;6.67;6.33;;;;;22.03;100.00;101395.63;4997394;28;45462;-73
2023/09/28 01:35:22;;;;;;;;;4.67;4.67;;;;;22.00;100.00;101401.09;4994424;28;45733;-73
2023/09/28 01:38:25;;;;;;;;;5.67;5.00;;;;;21.99;100.00;101408.28;4994156;28;64624;-72
2023/09/28 01:40:50;;;;;;;;;5.00;5.00;;;;;22.01;100.00;101414.50;4993394;28;45349;-74
2023/09/28 01:43:19;;;;;;;;;5.33;5.33;;;;;22.05;100.00;101408.13;4990851;28;45480;-73
2023/09/28 01:45:45;;;;;;;;;7.33;5.00;;;;;22.07;100.00;101408.97;4996833;28;46319;-73
2023/09/28 01:48:11;;;;;;;;;5.33;5.33;;;;;22.11;100.00;101409.81;4989716;28;47561;-74
2023/09/28 01:50:36;;;;;;;;;4.33;4.33;;;;;22.13;100.00;101402.56;4997747;28;45350;-72
2023/09/28 01:53:02;;;;;;;;;8.33;5.00;;;;;22.15;100.00;101415.03;4995595;28;45401;-73
2023/09/28 01:55:27;;;;;;;;;8.00;5.00;;;;;22.17;100.00;101423.06;4988538;28;45575;-73
2023/09/28 01:57:53;;;;;;;;;6.00;4.00;;;;;22.18;100.00;101422.16;4997221;28;46223;-72
2023/09/28 02:00:20;;;;;;;;;5.00;5.00;;;;;22.18;100.00;101430.22;4996211;28;70083;-73
2023/09/28 02:02:46;;;;;;;;;6.00;6.00;;;;;22.18;100.00;101423.03;4993868;28;45584;-73
2023/09/28 02:05:12;;;;;;;;;6.33;5.00;;;;;22.21;100.00;101422.03;4996416;28;45612;-73
2023/09/28 02:07:37;;;;;;;;;8.33;6.00;;;;;22.21;100.00;101416.66;4996145;28;47281;-74
2023/09/28 02:10:06;;;;;;;;;5.33;5.00;;;;;22.22;100.00;101415.75;4993219;28;60630;-73
2023/09/28 02:12:32;;;;;;;;;9.00;6.00;;;;;22.18;100.00;101422.16;4994934;28;45446;-74
2023/09/28 02:15:00;;;;;;;;;7.33;6.00;;;;;22.20;100.00;101410.41;4997371;28;45533;-71
2023/09/28 02:17:27;;;;;;;;;8.67;5.33;;;;;22.22;100.00;101411.25;4992697;28;45732;-70
2023/09/28 02:19:53;;;;;;;;;5.67;4.33;;;;;22.25;100.00;101407.59;4996547;28;45434;-71
2023/09/28 02:22:18;;;;;;;;;6.00;5.00;;;;;22.27;100.00;101405.75;4995294;28;66397;-71
2023/09/28 02:24:45;;;;;;;;;5.67;5.67;;;;;22.25;100.00;101410.28;4996132;28;61565;-71
2023/09/28 02:27:10;;;;;;;;;3.00;3.00;;;;;22.21;100.00;101417.56;4996042;28;46627;-71
2023/09/28 02:29:36;;;;;;;;;4.00;4.00;;;;;22.25;100.00;101415.66;4995952;28;66951;-70
2023/09/28 02:32:01;;;;;;;;;10.67;5.00;;;;;22.25;100.00;101420.16;4996742;28;45454;-71
2023/09/28 02:34:26;;;;;;;;;4.67;4.67;;;;;22.23;100.00;101423.78;4995894;28;64893;-72
2023/09/28 02:36:54;;;;;;;;;5.00;5.00;;;;;22.21;100.00;101417.56;4991430;28;69166;-72
2023/09/28 02:39:19;;;;;;;;;6.00;6.00;;;;;22.24;100.00;101416.59;4996970;28;45304;-73
2023/09/28 02:41:44;;;;;;;;;5.67;4.33;;;;;22.23;100.00;101415.72;4992504;28;62306;-73
2023/09/28 02:44:09;;;;;;;;;5.00;5.00;;;;;22.23;100.00;101421.09;4989611;28;60615;-73
2023/09/28 02:46:35;;;;;;;;;4.33;4.00;;;;;22.25;100.00;101414.78;4989725;28;66449;-72
2023/09/28 02:49:02;;;;;;;;;3.33;3.33;;;;;22.26;100.00;101397.69;4994336;28;45328;-73
2023/09/28 02:51:27;;;;;;;;;6.00;5.00;;;;;22.19;100.00;101403.25;4992041;28;45248;-73
2023/09/28 02:53:53;;;;;;;;;7.67;6.67;;;;;22.14;100.00;101415.06;4995972;28;57685;-73
2023/09/28 02:56:18;;;;;;;;;4.00;4.00;;;;;22.10;100.00;101421.44;4995804;28;46828;-72
2023/09/28 02:58:46;;;;;;;;;8.33;4.67;;;;;22.07;100.00;101416.16;4995314;28;69474;-72
2023/09/28 03:01:11;;;;;;;;;6.33;5.00;;;;;22.06;100.00;101419.75;4994768;28;45354;-72
2023/09/28 03:03:37;;;;;;;;;5.00;5.00;;;;;22.05;100.00;101429.66;4996731;28;45377;-72
2023/09/28 03:06:04;;;;;;;;;5.00;5.00;;;;;22.12;100.00;101439.34;4996091;28;46453;-73
2023/09/28 03:08:30;;;;;;;;;7.33;6.00;;;;;22.10;100.00;101451.00;4994627;28;45541;-72
2023/09/28 03:10:56;;;;;;;;;5.33;3.33;;;;;22.11;100.00;101447.47;4994531;28;45484;-72
2023/09/28 03:13:22;;;;;;;;;5.33;5.33;;;;;22.07;100.00;101435.84;4995769;28;45424;-72
2023/09/28 03:15:47;;;;;;;;;4.00;4.00;;;;;22.01;100.00;101440.53;4995546;28;61276;-74
2023/09/28 03:18:13;;;;;;;;;9.00;3.00;;;;;22.04;100.00;101435.03;4996256;28;45428;-72
2023/09/28 03:20:43;;;;;;;;;4.00;2.00;;;;;21.98;100.00;101431.59;4995936;28;45441;-72
2023/09/28 03:23:08;;;;;;;;;7.00;4.00;;;;;21.94;100.00;101423.63;4995706;28;45508;-72
2023/09/28 03:25:34;;;;;;;;;2.33;2.00;;;;;21.97;100.00;101429.84;4995273;28;45813;-72
2023/09/28 03:28:00;;;;;;;;;8.00;3.00;;;;;21.95;100.00;101425.44;4995120;28;45376;-72
2023/09/28 03:30:26;;;;;;;;;5.67;2.00;;;;;21.93;100.00;101422.75;4995341;28;45249;-72
2023/09/28 03:32:52;;;;;;;;;2.00;2.00;;;;;21.88;100.00;101422.00;4995780;28;45203;-72
2023/09/28 03:35:19;;;;;;;;;3.33;1.00;;;;;21.78;100.00;101425.84;4990323;28;46291;-71
2023/09/28 03:37:45;;;;;;;;;7.33;2.00;;;;;21.72;100.00;101417.94;4995734;28;45466;-71
2023/09/28 03:40:12;;;;;;;;;4.67;2.00;;;;;21.66;100.00;101423.50;4992839;28;45316;-72
2023/09/28 03:42:38;;;;;;;;;6.67;2.00;;;;;21.60;100.00;101429.03;4991779;28;45345;-71
2023/09/28 03:45:04;;;;;;;;;2.00;1.00;;;;;21.52;100.00;101426.53;4995011;28;47369;-72
2023/09/28 03:47:31;;;;;;;;;3.00;0.00;;;;;21.47;100.00;101425.78;4978157;28;45611;-70
2023/09/28 03:49:57;;;;;;;;;4.33;1.00;;;;;21.41;100.00;101429.50;4995310;28;45302;-72
2023/09/28 03:52:22;;;;;;;;;5.00;1.67;;;;;21.35;100.00;101424.25;4995209;28;47672;-71
2023/09/28 03:54:47;;;;;;;;;5.00;2.00;;;;;21.34;100.00;101429.66;4995755;28;46330;-72
2023/09/28 03:57:13;;;;;;;;;6.00;0.67;;;;;21.32;100.00;101431.50;4994848;28;65693;-71
2023/09/28 03:59:38;;;;;;;;;3.00;1.67;;;;;21.29;100.00;101424.34;4993994;28;61100;-72
2023/09/28 04:02:04;;;;;;;;;5.33;1.00;;;;;21.29;100.00;101418.97;4994081;28;64788;-72
2023/09/28 04:04:29;;;;;;;;;2.00;1.67;;;;;21.26;100.00;101421.75;4994033;28;45610;-73
2023/09/28 04:06:54;;;;;;;;;4.67;2.33;;;;;21.24;100.00;101428.97;4995548;28;47516;-70
2023/09/28 04:09:20;;;;;;;;;4.00;1.00;;;;;21.19;100.00;101437.13;4994743;28;46309;-73
2023/09/28 04:11:45;;;;;;;;;7.00;2.33;;;;;21.14;100.00;101435.47;4993766;28;60223;-71
2023/09/28 04:14:10;;;;;;;;;4.00;1.67;;;;;21.14;100.00;101441.72;4992199;28;45811;-71
2023/09/28 04:16:39;;;;;;;;;5.67;1.67;;;;;21.12;100.00;101453.41;4994343;28;65756;-70
2023/09/28 04:19:05;;;;;;;;;4.33;0.67;;;;;21.10;100.00;101447.22;4990369;28;45493;-73
2023/09/28 04:21:31;;;;;;;;;3.00;1.67;;;;;21.11;100.00;101460.59;4995321;28;45479;-70
2023/09/28 04:23:56;;;;;;;;;3.67;1.67;;;;;21.14;100.00;101455.13;4995272;28;47236;-70
2023/09/28 04:26:21;;;;;;;;;5.33;2.00;;;;;21.16;100.00;101453.31;4994921;28;49763;-70
2023/09/28 04:28:47;;;;;;;;;2.00;2.00;;;;;21.18;100.00;101464.00;4994581;28;47611;-71
2023/09/28 04:31:12;;;;;;;;;1.67;1.00;;;;;21.14;100.00;101455.13;4992858;28;63779;-71
2023/09/28 04:33:38;;;;;;;;;2.67;1.00;;;;;21.18;100.00;101472.97;4994565;28;46872;-71
2023/09/28 04:36:04;;;;;;;;;3.67;2.00;;;;;21.19;100.00;101465.78;4993990;28;65840;-71
2023/09/28 04:38:29;;;;;;;;;2.33;2.00;;;;;21.17;100.00;101473.00;4995201;28;45321;-70
2023/09/28 04:40:54;;;;;;;;;5.67;1.67;;;;;21.19;100.00;101471.16;4993067;28;61356;-71
2023/09/28 04:43:20;;;;;;;;;6.67;2.00;;;;;21.16;100.00;101472.13;4990507;28;71241;-71
2023/09/28 04:45:45;;;;;;;;;3.00;2.00;;;;;21.16;100.00;101476.63;4997905;28;47639;-73
2023/09/28 04:48:10;;;;;;;;;6.33;2.00;;;;;21.15;100.00;101474.84;4997995;28;45445;-72
2023/09/28 04:50:37;;;;;;;;;1.67;1.67;;;;;21.09;100.00;101466.91;4996248;28;63771;-71
2023/09/28 04:53:02;;;;;;;;;0.67;0.67;;;;;21.07;100.00;101464.25;4998055;28;46446;-72
2023/09/28 04:55:28;;;;;;;;;5.00;2.00;;;;;21.02;100.00;101473.34;4998209;28;45380;-70
2023/09/28 04:57:53;;;;;;;;;5.33;1.00;;;;;21.02;100.00;101476.03;4998356;28;45358;-70
2023/09/28 05:00:20;;;;;;;;;3.67;3.00;;;;;21.01;100.00;101469.78;4990117;28;45382;-70
2023/09/28 05:02:45;;;;;;;;;5.00;1.33;;;;;20.99;100.00;101457.31;4991395;28;45514;-72
2023/09/28 05:05:15;;;;;;;;;5.67;2.33;;;;;20.95;100.00;101464.53;4996521;28;45528;-70
2023/09/28 05:07:40;;;;;;;;;3.00;1.00;;;;;20.91;100.00;101470.88;4995452;28;45293;-71
2023/09/28 05:10:06;;;;;;;;;3.33;1.33;;;;;20.91;100.00;101473.56;4994056;28;63020;-71
2023/09/28 05:12:32;;;;;;;;;5.33;1.33;;;;;20.86;100.00;101478.16;4997056;28;46494;-70
2023/09/28 05:14:58;;;;;;;;;2.67;1.00;;;;;20.81;100.00;101483.63;4997876;28;45336;-69
2023/09/28 05:17:23;;;;;;;;;4.33;1.33;;;;;20.79;100.00;101487.25;4997453;28;45367;-73
2023/09/28 05:19:49;;;;;;;;;2.67;1.00;;;;;20.78;100.00;101497.13;4998675;28;45349;-72
2023/09/28 05:22:15;;;;;;;;;5.00;1.00;;;;;20.77;100.00;101500.69;5235748;22;72513;-71
2023/09/28 05:24:40;;;;;;;;;7.33;1.33;;;;;20.75;100.00;101490.91;5035922;28;45549;-70
2023/09/28 05:27:06;;;;;;;;;1.00;0.67;;;;;20.74;100.00;101497.22;5036206;28;62708;-70
2023/09/28 05:29:31;;;;;;;;;7.67;3.33;;;;;20.70;100.00;101490.13;5036857;28;57925;-72
2023/09/28 05:31:56;;;;;;;;;2.67;0.33;;;;;20.70;100.00;101503.53;5033261;28;61049;-71
2023/09/28 05:34:22;;;;;;;;;4.00;1.67;;;;;20.70;100.00;101503.53;5034531;28;45389;-71
2023/09/28 05:36:47;;;;;;;;;2.33;1.00;;;;;20.67;100.00;101496.44;5036448;28;45210;-72
2023/09/28 05:39:13;;;;;;;;;4.00;0.33;;;;;20.60;100.00;101498.34;5026300;28;64632;-70
2023/09/28 05:41:38;;;;;;;;;8.00;3.00;;;;;20.56;100.00;101507.41;5028217;28;67788;-71
2023/09/28 05:44:04;;;;;;;;;3.33;2.00;;;;;20.53;100.00;101517.28;5026713;28;45519;-71
2023/09/28 05:46:30;;;;;;;;;7.00;2.33;;;;;20.46;100.00;101515.63;5030973;28;45593;-72
2023/09/28 05:48:55;;;;;;;;;4.00;0.33;;;;;20.40;100.00;101528.25;5021718;28;45636;-68
2023/09/28 05:51:21;;;;;;;;;2.33;0.67;;;;;20.35;100.00;101529.22;5023189;28;72651;-69
2023/09/28 05:53:46;;;;;;;;;3.00;1.00;;;;;20.32;100.00;101526.59;5022479;28;68458;-70
2023/09/28 05:56:12;;;;;;;;;4.67;0.33;;;;;20.30;100.00;101523.94;5026988;28;47516;-70
2023/09/28 05:58:37;;;;;;;;;5.33;2.00;;;;;20.31;100.00;101519.47;5022650;28;45650;-70
2023/09/28 06:01:07;;;;;;;;;4.00;2.33;;;;;20.31;100.00;101527.50;5032297;28;45538;-71
2023/09/28 06:03:32;;;;;;;;;9.00;1.33;;;;;20.28;100.00;101541.84;5029122;28;45193;-73
2023/09/28 06:05:57;;;;;;;;;9.33;2.33;;;;;20.31;100.00;101532.88;5036257;28;45471;-71
2023/09/28 06:08:23;;;;;;;;;6.00;4.00;;;;;20.26;100.00;101535.63;5027255;28;61835;-70
2023/09/28 06:10:48;;;;;;;;;5.00;0.67;;;;;20.27;100.00;101542.75;5026072;28;68561;-71
2023/09/28 06:13:15;;;;;;;;;4.33;1.33;;;;;20.23;100.00;101550.88;5025021;28;45445;-72
2023/09/28 06:15:40;;;;;;;;;4.00;2.00;;;;;20.21;100.00;101547.34;5005283;28;45463;-73
2023/09/28 06:18:05;;;;;;;;;5.00;1.33;;;;;20.20;100.00;101548.28;5022916;28;60775;-71
2023/09/28 06:20:31;;;;;;;;;3.33;1.33;;;;;20.14;100.00;101543.91;5031531;28;51005;-71
2023/09/28 06:22:56;;;;;;;;;3.00;3.00;;;;;20.07;100.00;101552.94;5030939;28;46035;-71
2023/09/28 06:25:22;;;;;;;;;8.33;4.00;;;;;20.03;100.00;101548.56;5005056;28;45515;-71
2023/09/28 06:27:47;;;;;;;;;5.33;2.33;;;;;20.01;100.00;101561.09;5003934;28;45639;-71
2023/09/28 06:30:13;;;;;;;;;6.67;2.67;;;;;19.96;100.00;101557.59;5009916;28;46309;-72
2023/09/28 06:32:38;;;;;;;;;4.00;2.00;;;;;19.91;100.00;101567.50;5009960;28;45451;-68
2023/09/28 06:35:04;;;;;;;;;9.33;2.67;;;;;19.84;100.00;101570.28;5013295;28;45455;-70
2023/09/28 06:37:30;;;;;;;;;6.00;3.00;;;;;19.80;100.00;101576.59;5020899;28;45412;-69
2023/09/28 06:39:56;;;;;;;;;7.67;2.67;;;;;19.78;100.00;101574.88;5015365;28;45415;-70
2023/09/28 06:42:21;;;;;;;;;6.67;2.33;;;;;19.72;100.00;101581.19;5013268;28;64122;-71
2023/09/28 06:44:47;;;;;;;;;4.67;2.67;;;;;19.67;100.00;101583.06;5010302;28;62983;-70
2023/09/28 06:47:12;;;;;;;;;4.00;2.67;;;;;19.63;100.00;101586.69;5010043;28;45377;-70
2023/09/28 06:49:37;;;;;;;;;6.67;3.33;;;;;19.61;100.00;101576.00;5014862;28;48291;-69
2023/09/28 06:52:03;;;;;;;;;5.67;1.67;;;;;19.56;100.00;101582.31;5021395;28;65353;-69
2023/09/28 06:54:29;;;;;;;;;3.00;2.00;;;;;19.58;100.00;101580.47;5020800;28;45341;-71
2023/09/28 06:56:54;;;;;;;;;4.00;2.33;;;;;19.53;100.00;101583.22;5018228;28;45383;-71
2023/09/28 06:59:20;;;;;;;;;3.33;3.00;;;;;19.55;100.00;101583.22;5012042;28;46568;-71
2023/09/28 07:01:45;;;;;;;;;5.00;4.00;;;;;19.52;100.00;101573.41;5011789;28;45518;-71
2023/09/28 07:04:11;;;;;;;;;2.33;2.00;;;;;19.50;100.00;101575.25;5013819;28;65133;-72
2023/09/28 07:06:36;;;;;;;;;4.67;3.00;;;;;19.53;100.00;101574.28;5011869;28;45506;-72
2023/09/28 07:09:03;;;;;;;;;4.67;2.00;;;;;19.52;100.00;101573.41;5009308;28;71275;-74
2023/09/28 07:11:28;;;;;;;;;4.00;2.33;;;;;19.54;100.00;101573.38;5011056;28;45516;-71
2023/09/28 07:13:54;;;;;;;;;6.33;2.00;;;;;19.57;100.00;101584.06;5013619;28;45411;-75
2023/09/28 07:16:20;;;;;;;;;4.33;2.00;;;;;19.61;100.00;101576.00;5003239;28;59416;-71
2023/09/28 07:18:45;;;;;;;;;9.00;2.00;;;;;19.64;100.00;101577.75;5009340;28;46482;-72
2023/09/28 07:21:10;;;;;;;;;8.33;2.00;;;;;19.66;100.00;101578.63;5012879;28;65279;-71
2023/09/28 07:23:37;;;;;;;;;5.33;2.00;;;;;19.71;100.00;101590.16;5034743;28;65402;-72
2023/09/28 07:26:11;;;;;;;;;5.00;3.00;;;;;19.72;100.00;101596.41;5031766;28;45518;-72
2023/09/28 07:28:37;;;;;;;;;4.67;2.67;;;;;19.76;100.00;101616.84;5031405;28;46985;-71
2023/09/28 07:31:03;;;;;;;;;4.00;1.00;;;;;19.71;100.00;101611.59;5037840;28;45347;-72
2023/09/28 07:33:28;;;;;;;;;6.67;3.67;;;;;19.73;100.00;101622.28;5025392;28;45524;-73
2023/09/28 07:35:53;;;;;;;;;5.67;3.00;;;;;19.75;100.00;101617.78;5030477;28;62072;-70
2023/09/28 07:38:19;;;;;;;;;5.67;3.00;;;;;19.73;100.00;101615.13;5032162;28;66588;-73
2023/09/28 07:40:44;;;;;;;;;7.67;4.00;;;;;19.79;100.00;101615.03;5030152;28;45458;-72
2023/09/28 07:43:09;;;;;;;;;6.00;2.00;;;;;19.82;100.00;101623.03;5034561;28;64326;-71
2023/09/28 07:45:36;;;;;;;;;7.67;2.33;;;;;19.86;100.00;101614.03;5034219;28;46164;-74
2023/09/28 07:48:03;;;;;;;;;5.00;4.00;;;;;19.89;100.00;101615.78;5024871;28;46444;-71
2023/09/28 07:50:28;;;;;;;;;8.00;2.00;;;;;19.93;100.00;101619.31;5028060;28;45632;-70
2023/09/28 07:52:53;;;;;;;;;4.33;3.00;;;;;19.97;100.00;101621.03;5031862;28;62761;-72
2023/09/28 07:55:19;;;;;;;;;5.00;1.00;;;;;20.01;100.00;101617.38;5025527;28;45487;-71
2023/09/28 07:57:46;;;;;;;;;6.00;3.00;;;;;20.04;100.00;101617.34;5030138;28;45552;-72
2023/09/28 08:00:12;;;;;;;;;4.33;2.67;;;;;20.09;100.00;101618.19;5029667;28;45468;-71
2023/09/28 08:02:38;;;;;;;;;5.67;2.00;;;;;20.13;100.00;101617.19;5037392;28;45400;-73
2023/09/28 08:05:04;;;;;;;;;6.00;2.33;;;;;20.16;100.00;101614.47;5035255;28;45594;-72
2023/09/28 08:07:33;;;;;;;;;9.67;2.00;;;;;20.19;100.00;101617.13;5039510;28;46655;-73
2023/09/28 08:10:00;;;;;;;;;7.33;3.67;;;;;20.25;100.00;101618.81;5037002;28;45524;-72
2023/09/28 08:12:26;;;;;;;;;3.33;2.67;;;;;20.30;100.00;101622.31;5039594;28;45560;-72
2023/09/28 08:14:52;;;;;;;;;4.33;3.00;;;;;20.34;100.00;101624.88;5029909;28;45444;-74
2023/09/28 08:17:18;;;;;;;;;11.67;5.33;;;;;20.41;100.00;101620.31;5034453;28;46595;-72
2023/09/28 08:19:43;;;;;;;;;5.67;2.33;;;;;20.45;100.00;101622.00;5039480;28;45348;-72
2023/09/28 08:22:10;;;;;;;;;3.00;1.67;;;;;20.45;100.00;101622.00;5036697;28;45404;-73
2023/09/28 08:24:35;;;;;;;;;4.67;2.67;;;;;20.46;100.00;101634.59;5038616;28;45547;-72
2023/09/28 08:27:01;;;;;;;;;7.00;2.33;;;;;20.51;100.00;101635.38;5038779;28;53634;-74
2023/09/28 08:29:26;;;;;;;;;1.67;1.67;;;;;20.56;100.00;101651.38;5036574;28;45454;-73
2023/09/28 08:31:52;;;;;;;;;4.33;3.00;;;;;20.57;100.00;101650.50;5036871;28;45482;-71
2023/09/28 08:34:17;;;;;;;;;2.67;1.00;;;;;20.61;100.00;101658.47;5030970;28;45518;-71
2023/09/28 08:36:44;;;;;;;;;4.00;2.67;;;;;20.72;100.00;101663.66;5033471;28;45617;-71
2023/09/28 08:39:10;;;;;;;;;4.67;2.00;;;;;20.86;100.00;101658.88;5037559;28;45505;-71
2023/09/28 08:41:47;;;;;;;;;4.67;1.67;;;;;21.03;100.00;101658.56;5030778;28;45529;-75
2023/09/28 08:44:13;;;;;;;;;2.33;2.33;;;;;21.17;100.00;101658.31;5033541;28;45923;-72
2023/09/28 08:46:40;;;;;;;;;2.00;1.33;;;;;21.30;100.00;101653.59;5033439;28;46276;-72
2023/09/28 08:49:06;;;;;;;;;4.00;2.33;;;;;21.42;100.00;101662.31;5040790;28;45503;-70
2023/09/28 08:51:34;;;;;;;;;4.00;1.67;;;;;21.47;100.00;101647.91;5031265;28;45269;-73
2023/09/28 08:54:02;;;;;;;;;3.00;0.67;;;;;21.55;100.00;101632.50;5040566;28;45624;-71
2023/09/28 08:56:29;;;;;;;;;6.33;2.00;;;;;21.62;100.00;101626.06;5030187;28;45728;-74
2023/09/28 08:58:54;;;;;;;;;4.67;2.00;;;;;21.72;100.00;101624.94;5038255;28;45442;-73
2023/09/28 09:01:20;;;;;;;;;1.33;0.67;;;;;21.73;100.00;101607.88;5031231;28;45446;-71
2023/09/28 09:03:47;;;;;;;;;5.00;2.00;;;;;21.77;100.00;101609.59;5036941;28;61237;-74
2023/09/28 09:06:13;;;;;;;;;5.33;1.67;;;;;21.81;100.00;101611.28;5034762;28;47713;-71
2023/09/28 09:08:43;;;;;;;;;5.00;2.00;;;;;21.86;100.00;101609.38;5032927;28;45516;-72
2023/09/28 09:11:09;;;;;;;;;3.33;1.67;;;;;21.86;100.00;101608.50;5020357;28;45501;-73
2023/09/28 09:13:35;;;;;;;;;4.00;3.00;;;;;21.88;100.00;101591.41;5024768;28;45593;-71
2023/09/28 09:16:00;;;;;;;;;2.67;1.33;;;;;21.91;100.00;101604.78;5026847;28;46339;-72
2023/09/28 09:18:26;;;;;;;;;3.33;1.00;;;;;21.87;100.00;101602.19;5026933;28;45400;-74
2023/09/28 09:20:57;;;;;;;;;4.67;1.00;;;;;21.84;100.00;101600.47;5030873;28;45459;-74
2023/09/28 09:23:24;;;;;;;;;5.67;2.67;;;;;21.84;100.00;101604.94;5033522;28;45546;-73
2023/09/28 09:25:53;;;;;;;;;3.67;0.00;;;;;21.84;100.00;101595.09;5027369;28;45698;-72
2023/09/28 09:28:32;;;;;;;;;4.33;2.67;;;;;21.89;100.00;101605.72;5036340;28;45404;-74
2023/09/28 09:30:58;;;;;;;;;3.00;0.67;;;;;21.97;100.00;101611.81;5029805;28;45440;-73
2023/09/28 09:33:24;;;;;;;;;6.00;3.00;;;;;22.04;100.00;101618.81;5028335;28;45337;-73
2023/09/28 09:35:50;;;;;;;;;2.67;1.00;;;;;22.07;100.00;101616.06;5014767;28;47454;-72
2023/09/28 09:38:22;;;;;;;;;3.00;1.67;;;;;22.04;100.00;101612.53;5032035;28;45432;-74
2023/09/28 09:41:01;;;;;;;;;2.67;2.00;;;;;21.89;100.00;101603.03;5024968;28;45558;-75
2023/09/28 09:43:31;;;;;;;;;7.33;3.00;;;;;21.82;100.00;101593.34;5028235;28;45586;-74
2023/09/28 09:45:57;;;;;;;;;7.67;1.00;;;;;21.78;100.00;101605.97;5031345;28;47484;-72
2023/09/28 09:48:24;;;;;;;;;7.00;1.33;;;;;21.74;100.00;101622.22;5042336;28;57430;-73
2023/09/28 09:50:49;;;;;;;;;8.67;1.67;;;;;21.66;100.00;101615.22;5000683;28;45650;-72
2023/09/28 09:53:16;;;;;;;;;4.00;2.00;;;;;21.61;100.00;101618.91;5033820;28;59452;-72
2023/09/28 09:55:42;;;;;;;;;1.33;1.33;;;;;21.52;100.00;101620.03;5036560;28;46522;-74
2023/09/28 09:58:13;;;;;;;;;4.33;3.00;;;;;21.51;100.00;101618.22;5033777;28;45565;-73
2023/09/28 10:00:41;;;;;;;;;4.33;1.67;;;;;21.57;100.00;101619.91;5041931;28;46590;-72
2023/09/28 10:03:08;;;;;;;;;2.00;1.00;;;;;21.63;100.00;101604.53;5019614;28;45610;-73
2023/09/28 10:05:35;;;;;;;;;6.00;2.00;;;;;21.75;100.00;101605.19;5034284;28;46811;-72
2023/09/28 10:08:03;;;;;;;;;2.33;2.33;;;;;21.93;100.00;101585.91;5039955;28;45325;-72
2023/09/28 10:10:30;;;;;;;;;5.33;1.00;;;;;22.16;100.00;101593.47;5038462;28;45582;-72
2023/09/28 10:12:56;;;;;;;;;2.33;2.33;;;;;22.33;100.00;101593.03;5023267;28;45192;-72
2023/09/28 10:15:21;;;;;;;;;6.33;2.00;;;;;22.53;100.00;101579.03;5021980;28;72891;-75
2023/09/28 10:17:47;;;;;;;;;1.00;1.00;;;;;22.78;100.00;101569.38;5025623;28;45386;-76
2023/09/28 10:20:13;;;;;;;;;6.00;2.00;;;;;22.94;100.00;101564.47;5035316;28;63975;-72
2023/09/28 10:22:45;;;;;;;;;3.67;1.67;;;;;23.00;100.00;101570.56;5030662;28;45626;-71
2023/09/28 10:25:15;;;;;;;;;6.00;1.00;;;;;22.98;100.00;101560.78;5041570;28;45806;-73
2023/09/28 10:27:43;;;;;;;;;2.33;1.00;;;;;22.90;100.00;101576.25;5032110;28;46954;-73
2023/09/28 10:30:16;;;;;;;;;2.33;1.00;;;;;22.91;100.00;101567.28;5030849;28;45742;-72
2023/09/28 10:32:42;;;;;;;;;3.00;2.00;;;;;22.91;100.00;101562.78;5030253;28;45309;-74
2023/09/28 10:35:20;;;;;;;;;5.00;2.00;;;;;22.89;100.00;101563.72;5039125;28;45438;-76
2023/09/28 10:38:13;;;;;;;;;8.00;4.00;;;;;22.90;100.00;101569.06;5017843;28;45667;-72
2023/09/28 10:40:41;;;;;;;;;5.00;2.00;;;;;22.82;100.00;101559.41;5025802;28;45502;-70
2023/09/28 10:43:11;;;;;;;;;4.00;1.00;;;;;22.82;100.00;101541.44;5029352;28;45593;-72
2023/09/28 10:45:37;;;;;;;;;1.33;1.33;;;;;22.82;100.00;101536.06;5027187;28;46603;-71
2023/09/28 10:48:06;;;;;;;;;2.67;1.00;;;;;22.85;100.00;101532.38;5027755;28;45461;-72
2023/09/28 10:50:36;;;;;;;;;1.00;0.67;;;;;22.87;100.00;101544.91;5025567;28;45349;-74
2023/09/28 10:53:02;;;;;;;;;3.33;2.00;;;;;22.94;100.00;101542.94;5023864;28;45356;-72
2023/09/28 10:55:27;;;;;;;;;1.00;0.33;;;;;23.07;100.00;101548.88;5031061;28;57898;-73
2023/09/28 10:57:52;;;;;;;;;5.00;2.00;;;;;23.23;100.00;101542.09;5032719;28;45498;-72
2023/09/28 11:00:18;;;;;;;;;2.67;1.67;;;;;23.41;100.00;101546.03;5032692;28;61624;-74
2023/09/28 11:02:44;;;;;;;;;5.00;2.00;;;;;23.62;100.00;101534.56;5010393;28;45467;-73
2023/09/28 11:05:10;;;;;;;;;3.33;2.00;;;;;23.80;100.00;101541.19;5026654;28;45737;-70
2023/09/28 11:07:35;;;;;;;;;5.00;1.67;;;;;23.92;100.00;101540.81;5026469;28;67498;-72
2023/09/28 11:10:02;;;;;;;;;7.00;2.00;;;;;23.97;100.00;101541.53;5030189;28;45484;-73
2023/09/28 11:12:28;;;;;;;;;4.00;1.00;;;;;24.00;100.00;101546.81;5031844;28;45729;-74
2023/09/28 11:14:55;;;;;;;;;6.00;1.33;;;;;24.01;100.00;101545.88;5023512;28;46460;-73